sensor_id;sensor_type;location;lat;lon;timestamp;P1;durP1;ratioP1;P2;durP2;ratioP2
68821;SDS011;55834;50.870;4.606;2023-05-01T00:00:52;2.10;;;1.90;;
68821;SDS011;55834;50.870;4.606;2023-05-01T00:03:25;2.60;;;1.88;;
68821;SDS011;55834;50.870;4.606;2023-05-01T00:06:01;2.67;;;2.30;;
68821;SDS011;55834;50.870;4.606;2023-05-01T00:08:29;2.08;;;1.98;;
68821;SDS011;55834;50.870;4.606;2023-05-01T00:11:04;2.30;;;2.10;;
68821;SDS011;55834;50.870;4.606;2023-05-01T00:13:45;2.00;;;1.80;;
68821;SDS011;55834;50.870;4.606;2023-05-01T00:16:22;2.28;;;2.08;;
68821;SDS011;55834;50.870;4.606;2023-05-01T00:18:51;2.80;;;2.08;;
68821;SDS011;55834;50.870;4.606;2023-05-01T00:21:31;2.05;;;1.90;;
68821;SDS011;55834;50.870;4.606;2023-05-01T00:24:05;2.80;;;2.47;;
68821;SDS011;55834;50.870;4.606;2023-05-01T00:26:33;2.20;;;2.00;;
68821;SDS011;55834;50.870;4.606;2023-05-01T00:29:02;3.03;;;2.42;;
68821;SDS011;55834;50.870;4.606;2023-05-01T00:31:31;2.47;;;2.13;;
68821;SDS011;55834;50.870;4.606;2023-05-01T00:34:10;2.33;;;2.13;;
68821;SDS011;55834;50.870;4.606;2023-05-01T00:36:45;2.33;;;2.20;;
68821;SDS011;55834;50.870;4.606;2023-05-01T00:41:45;2.80;;;2.40;;
68821;SDS011;55834;50.870;4.606;2023-05-01T00:44:23;1.77;;;1.67;;
68821;SDS011;55834;50.870;4.606;2023-05-01T00:46:54;2.97;;;1.92;;
68821;SDS011;55834;50.870;4.606;2023-05-01T00:49:30;3.83;;;2.70;;
68821;SDS011;55834;50.870;4.606;2023-05-01T00:52:00;1.90;;;1.80;;
68821;SDS011;55834;50.870;4.606;2023-05-01T00:54:37;2.45;;;2.00;;
68821;SDS011;55834;50.870;4.606;2023-05-01T00:57:08;3.35;;;2.53;;
68821;SDS011;55834;50.870;4.606;2023-05-01T00:59:47;1.77;;;1.67;;
68821;SDS011;55834;50.870;4.606;2023-05-01T01:02:19;3.05;;;2.67;;
68821;SDS011;55834;50.870;4.606;2023-05-01T01:04:55;2.35;;;2.15;;
68821;SDS011;55834;50.870;4.606;2023-05-01T01:10:36;2.85;;;1.90;;
68821;SDS011;55834;50.870;4.606;2023-05-01T01:13:19;2.20;;;1.90;;
68821;SDS011;55834;50.870;4.606;2023-05-01T01:15:52;2.75;;;1.92;;
68821;SDS011;55834;50.870;4.606;2023-05-01T01:18:52;3.10;;;2.08;;
68821;SDS011;55834;50.870;4.606;2023-05-01T01:21:37;2.50;;;1.83;;
68821;SDS011;55834;50.870;4.606;2023-05-01T01:36:14;4.78;;;2.53;;
68821;SDS011;55834;50.870;4.606;2023-05-01T01:42:07;2.80;;;2.60;;
68821;SDS011;55834;50.870;4.606;2023-05-01T01:44:54;3.25;;;2.80;;
68821;SDS011;55834;50.870;4.606;2023-05-01T01:47:32;3.55;;;2.92;;
68821;SDS011;55834;50.870;4.606;2023-05-01T01:50:12;2.78;;;2.58;;
68821;SDS011;55834;50.870;4.606;2023-05-01T01:52:46;3.80;;;2.20;;
68821;SDS011;55834;50.870;4.606;2023-05-01T01:55:26;2.33;;;1.70;;
68821;SDS011;55834;50.870;4.606;2023-05-01T02:00:51;3.35;;;2.38;;
68821;SDS011;55834;50.870;4.606;2023-05-01T02:03:20;2.47;;;2.28;;
68821;SDS011;55834;50.870;4.606;2023-05-01T02:06:08;4.38;;;3.35;;
68821;SDS011;55834;50.870;4.606;2023-05-01T02:08:41;3.75;;;2.92;;
68821;SDS011;55834;50.870;4.606;2023-05-01T02:11:24;2.95;;;2.00;;
68821;SDS011;55834;50.870;4.606;2023-05-01T02:14:11;2.50;;;2.30;;
68821;SDS011;55834;50.870;4.606;2023-05-01T02:16:53;2.67;;;2.47;;
68821;SDS011;55834;50.870;4.606;2023-05-01T02:19:29;2.33;;;2.17;;
68821;SDS011;55834;50.870;4.606;2023-05-01T02:22:07;2.95;;;1.95;;
68821;SDS011;55834;50.870;4.606;2023-05-01T02:24:40;3.40;;;2.72;;
68821;SDS011;55834;50.870;4.606;2023-05-01T02:27:11;3.40;;;3.00;;
68821;SDS011;55834;50.870;4.606;2023-05-01T02:29:43;2.58;;;2.38;;
68821;SDS011;55834;50.870;4.606;2023-05-01T02:32:11;2.35;;;2.15;;
68821;SDS011;55834;50.870;4.606;2023-05-01T02:34:42;3.03;;;1.90;;
68821;SDS011;55834;50.870;4.606;2023-05-01T02:37:09;2.47;;;1.85;;
68821;SDS011;55834;50.870;4.606;2023-05-01T02:40:01;3.35;;;1.95;;
68821;SDS011;55834;50.870;4.606;2023-05-01T02:42:48;2.03;;;1.83;;
68821;SDS011;55834;50.870;4.606;2023-05-01T02:45:49;2.20;;;2.00;;
68821;SDS011;55834;50.870;4.606;2023-05-01T02:48:40;2.20;;;2.10;;
68821;SDS011;55834;50.870;4.606;2023-05-01T02:54:33;3.00;;;2.55;;
68821;SDS011;55834;50.870;4.606;2023-05-01T03:00:04;2.50;;;1.85;;
68821;SDS011;55834;50.870;4.606;2023-05-01T03:02:51;3.10;;;2.80;;
68821;SDS011;55834;50.870;4.606;2023-05-01T03:05:37;2.63;;;2.13;;
68821;SDS011;55834;50.870;4.606;2023-05-01T03:08:35;2.95;;;2.65;;
68821;SDS011;55834;50.870;4.606;2023-05-01T03:11:16;2.60;;;2.40;;
68821;SDS011;55834;50.870;4.606;2023-05-01T03:14:13;2.78;;;2.13;;
68821;SDS011;55834;50.870;4.606;2023-05-01T03:16:52;3.63;;;2.20;;
68821;SDS011;55834;50.870;4.606;2023-05-01T03:19:41;2.00;;;1.90;;
68821;SDS011;55834;50.870;4.606;2023-05-01T03:22:41;2.60;;;2.00;;
68821;SDS011;55834;50.870;4.606;2023-05-01T03:25:43;2.78;;;2.58;;
68821;SDS011;55834;50.870;4.606;2023-05-01T03:31:28;2.33;;;2.15;;
68821;SDS011;55834;50.870;4.606;2023-05-01T03:37:10;3.05;;;2.85;;
68821;SDS011;55834;50.870;4.606;2023-05-01T03:40:03;3.70;;;2.67;;
68821;SDS011;55834;50.870;4.606;2023-05-01T03:43:24;3.03;;;2.83;;
68821;SDS011;55834;50.870;4.606;2023-05-01T03:46:38;2.63;;;2.42;;
68821;SDS011;55834;50.870;4.606;2023-05-01T03:49:39;2.20;;;2.00;;
68821;SDS011;55834;50.870;4.606;2023-05-01T03:52:42;2.60;;;2.40;;
68821;SDS011;55834;50.870;4.606;2023-05-01T03:55:21;2.35;;;2.13;;
68821;SDS011;55834;50.870;4.606;2023-05-01T04:09:53;3.00;;;1.67;;
68821;SDS011;55834;50.870;4.606;2023-05-01T04:12:43;2.33;;;1.95;;
68821;SDS011;55834;50.870;4.606;2023-05-01T04:18:38;2.92;;;2.72;;
68821;SDS011;55834;50.870;4.606;2023-05-01T04:21:21;2.10;;;1.90;;
68821;SDS011;55834;50.870;4.606;2023-05-01T04:24:06;2.92;;;2.70;;
68821;SDS011;55834;50.870;4.606;2023-05-01T04:27:12;2.65;;;2.40;;
68821;SDS011;55834;50.870;4.606;2023-05-01T04:29:53;2.03;;;1.83;;
68821;SDS011;55834;50.870;4.606;2023-05-01T04:36:20;2.30;;;2.20;;
68821;SDS011;55834;50.870;4.606;2023-05-01T04:39:26;2.25;;;2.03;;
68821;SDS011;55834;50.870;4.606;2023-05-01T04:42:01;2.42;;;2.22;;
68821;SDS011;55834;50.870;4.606;2023-05-01T04:45:20;2.78;;;2.47;;
68821;SDS011;55834;50.870;4.606;2023-05-01T04:48:36;2.67;;;2.47;;
68821;SDS011;55834;50.870;4.606;2023-05-01T04:51:27;2.30;;;2.10;;
68821;SDS011;55834;50.870;4.606;2023-05-01T04:54:12;2.20;;;2.00;;
68821;SDS011;55834;50.870;4.606;2023-05-01T04:57:33;2.83;;;2.60;;
68821;SDS011;55834;50.870;4.606;2023-05-01T05:06:34;4.50;;;2.50;;
68821;SDS011;55834;50.870;4.606;2023-05-01T05:12:14;3.22;;;2.75;;
68821;SDS011;55834;50.870;4.606;2023-05-01T05:14:54;3.38;;;2.65;;
68821;SDS011;55834;50.870;4.606;2023-05-01T05:17:22;2.65;;;1.90;;
68821;SDS011;55834;50.870;4.606;2023-05-01T05:20:12;2.50;;;2.30;;
68821;SDS011;55834;50.870;4.606;2023-05-01T05:22:39;2.50;;;2.30;;
68821;SDS011;55834;50.870;4.606;2023-05-01T05:25:09;3.92;;;2.50;;
68821;SDS011;55834;50.870;4.606;2023-05-01T05:27:47;3.45;;;2.25;;
68821;SDS011;55834;50.870;4.606;2023-05-01T05:36:48;2.90;;;2.60;;
68821;SDS011;55834;50.870;4.606;2023-05-01T05:40:15;2.92;;;2.40;;
68821;SDS011;55834;50.870;4.606;2023-05-01T05:43:30;3.83;;;3.45;;
68821;SDS011;55834;50.870;4.606;2023-05-01T05:46:35;4.05;;;3.35;;
68821;SDS011;55834;50.870;4.606;2023-05-01T06:05:53;3.00;;;2.72;;
68821;SDS011;55834;50.870;4.606;2023-05-01T06:19:43;4.05;;;3.60;;
68821;SDS011;55834;50.870;4.606;2023-05-01T06:52:22;5.65;;;3.97;;
68821;SDS011;55834;50.870;4.606;2023-05-01T06:59:52;4.00;;;3.03;;
68821;SDS011;55834;50.870;4.606;2023-05-01T07:14:23;3.85;;;3.55;;
68821;SDS011;55834;50.870;4.606;2023-05-01T07:20:37;5.82;;;5.22;;
68821;SDS011;55834;50.870;4.606;2023-05-01T07:23:25;8.30;;;5.70;;
68821;SDS011;55834;50.870;4.606;2023-05-01T08:12:48;15.05;;;12.07;;
68821;SDS011;55834;50.870;4.606;2023-05-01T08:23:13;18.38;;;13.18;;
68821;SDS011;55834;50.870;4.606;2023-05-01T08:25:57;16.80;;;13.98;;
68821;SDS011;55834;50.870;4.606;2023-05-01T08:28:22;19.63;;;14.98;;
68821;SDS011;55834;50.870;4.606;2023-05-01T08:30:48;18.10;;;12.80;;
68821;SDS011;55834;50.870;4.606;2023-05-01T08:33:13;22.10;;;15.80;;
68821;SDS011;55834;50.870;4.606;2023-05-01T08:35:40;20.85;;;14.50;;
68821;SDS011;55834;50.870;4.606;2023-05-01T08:38:26;21.65;;;15.23;;
68821;SDS011;55834;50.870;4.606;2023-05-01T08:40:52;23.83;;;16.33;;
68821;SDS011;55834;50.870;4.606;2023-05-01T08:43:18;19.73;;;14.82;;
68821;SDS011;55834;50.870;4.606;2023-05-01T08:45:45;21.90;;;16.75;;
68821;SDS011;55834;50.870;4.606;2023-05-01T08:48:11;18.75;;;14.57;;
68821;SDS011;55834;50.870;4.606;2023-05-01T08:50:41;21.02;;;16.52;;
68821;SDS011;55834;50.870;4.606;2023-05-01T08:53:10;23.25;;;16.65;;
68821;SDS011;55834;50.870;4.606;2023-05-01T08:55:36;23.15;;;17.25;;
68821;SDS011;55834;50.870;4.606;2023-05-01T09:00:30;27.08;;;17.63;;
68821;SDS011;55834;50.870;4.606;2023-05-01T09:02:59;28.25;;;17.52;;
68821;SDS011;55834;50.870;4.606;2023-05-01T09:05:26;25.42;;;17.75;;
68821;SDS011;55834;50.870;4.606;2023-05-01T09:07:52;25.15;;;17.65;;
68821;SDS011;55834;50.870;4.606;2023-05-01T09:10:19;28.95;;;17.80;;
68821;SDS011;55834;50.870;4.606;2023-05-01T09:12:46;27.10;;;17.60;;
68821;SDS011;55834;50.870;4.606;2023-05-01T09:15:15;29.10;;;16.90;;
68821;SDS011;55834;50.870;4.606;2023-05-01T09:17:42;24.73;;;18.45;;
68821;SDS011;55834;50.870;4.606;2023-05-01T09:22:34;27.48;;;18.40;;
68821;SDS011;55834;50.870;4.606;2023-05-01T09:25:00;29.00;;;21.50;;
68821;SDS011;55834;50.870;4.606;2023-05-01T09:27:26;32.00;;;21.92;;
68821;SDS011;55834;50.870;4.606;2023-05-01T09:29:52;28.75;;;21.02;;
68821;SDS011;55834;50.870;4.606;2023-05-01T09:32:22;32.30;;;20.17;;
68821;SDS011;55834;50.870;4.606;2023-05-01T09:34:50;29.75;;;20.88;;
68821;SDS011;55834;50.870;4.606;2023-05-01T09:37:25;33.28;;;21.08;;
68821;SDS011;55834;50.870;4.606;2023-05-01T09:40:09;43.35;;;22.88;;
68821;SDS011;55834;50.870;4.606;2023-05-01T09:42:36;32.17;;;20.33;;
68821;SDS011;55834;50.870;4.606;2023-05-01T09:45:04;27.92;;;18.27;;
68821;SDS011;55834;50.870;4.606;2023-05-01T09:47:31;29.67;;;19.00;;
68821;SDS011;55834;50.870;4.606;2023-05-01T09:49:58;30.17;;;20.05;;
68821;SDS011;55834;50.870;4.606;2023-05-01T09:52:25;30.63;;;20.95;;
68821;SDS011;55834;50.870;4.606;2023-05-01T09:55:34;30.95;;;20.50;;
68821;SDS011;55834;50.870;4.606;2023-05-01T09:57:42;29.73;;;20.92;;
68821;SDS011;55834;50.870;4.606;2023-05-01T10:00:09;33.42;;;21.73;;
68821;SDS011;55834;50.870;4.606;2023-05-01T10:02:38;29.60;;;20.20;;
68821;SDS011;55834;50.870;4.606;2023-05-01T10:05:05;33.40;;;20.83;;
68821;SDS011;55834;50.870;4.606;2023-05-01T10:07:32;28.60;;;18.38;;
68821;SDS011;55834;50.870;4.606;2023-05-01T10:09:58;31.77;;;21.27;;
68821;SDS011;55834;50.870;4.606;2023-05-01T10:12:38;32.53;;;22.63;;
68821;SDS011;55834;50.870;4.606;2023-05-01T10:15:04;35.85;;;21.00;;
68821;SDS011;55834;50.870;4.606;2023-05-01T10:17:32;31.42;;;20.05;;
68821;SDS011;55834;50.870;4.606;2023-05-01T10:19:58;33.70;;;21.88;;
68821;SDS011;55834;50.870;4.606;2023-05-01T10:22:23;35.08;;;22.70;;
68821;SDS011;55834;50.870;4.606;2023-05-01T10:24:56;31.48;;;19.70;;
68821;SDS011;55834;50.870;4.606;2023-05-01T10:27:23;32.53;;;20.95;;
68821;SDS011;55834;50.870;4.606;2023-05-01T10:29:51;33.55;;;20.40;;
68821;SDS011;55834;50.870;4.606;2023-05-01T10:32:17;31.83;;;21.20;;
68821;SDS011;55834;50.870;4.606;2023-05-01T10:37:14;37.70;;;23.83;;
68821;SDS011;55834;50.870;4.606;2023-05-01T10:39:43;30.90;;;21.13;;
68821;SDS011;55834;50.870;4.606;2023-05-01T10:42:09;36.53;;;22.77;;
68821;SDS011;55834;50.870;4.606;2023-05-01T10:44:38;38.97;;;22.70;;
68821;SDS011;55834;50.870;4.606;2023-05-01T10:50:04;38.85;;;21.90;;
68821;SDS011;55834;50.870;4.606;2023-05-01T10:53:13;37.13;;;21.75;;
68821;SDS011;55834;50.870;4.606;2023-05-01T10:55:39;33.83;;;21.02;;
68821;SDS011;55834;50.870;4.606;2023-05-01T10:58:08;37.42;;;20.70;;
68821;SDS011;55834;50.870;4.606;2023-05-01T11:00:38;36.05;;;21.80;;
68821;SDS011;55834;50.870;4.606;2023-05-01T11:08:42;32.95;;;20.85;;
68821;SDS011;55834;50.870;4.606;2023-05-01T11:14:00;28.13;;;17.30;;
68821;SDS011;55834;50.870;4.606;2023-05-01T11:18:57;31.90;;;19.70;;
68821;SDS011;55834;50.870;4.606;2023-05-01T11:21:29;29.65;;;18.55;;
68821;SDS011;55834;50.870;4.606;2023-05-01T11:24:01;31.13;;;19.88;;
68821;SDS011;55834;50.870;4.606;2023-05-01T11:26:36;33.17;;;19.75;;
68821;SDS011;55834;50.870;4.606;2023-05-01T11:29:03;29.35;;;20.63;;
68821;SDS011;55834;50.870;4.606;2023-05-01T11:31:30;35.80;;;22.00;;
68821;SDS011;55834;50.870;4.606;2023-05-01T11:33:56;32.55;;;19.85;;
68821;SDS011;55834;50.870;4.606;2023-05-01T11:36:24;30.70;;;19.75;;
68821;SDS011;55834;50.870;4.606;2023-05-01T11:38:51;34.38;;;23.92;;
68821;SDS011;55834;50.870;4.606;2023-05-01T11:41:30;33.30;;;20.73;;
68821;SDS011;55834;50.870;4.606;2023-05-01T11:43:57;38.10;;;23.42;;
68821;SDS011;55834;50.870;4.606;2023-05-01T11:46:31;35.85;;;22.88;;
68821;SDS011;55834;50.870;4.606;2023-05-01T11:49:03;38.28;;;23.23;;
68821;SDS011;55834;50.870;4.606;2023-05-01T11:51:33;35.38;;;21.42;;
68821;SDS011;55834;50.870;4.606;2023-05-01T11:54:03;31.17;;;21.42;;
68821;SDS011;55834;50.870;4.606;2023-05-01T11:59:37;34.40;;;22.35;;
68821;SDS011;55834;50.870;4.606;2023-05-01T12:02:03;36.03;;;25.50;;
68821;SDS011;55834;50.870;4.606;2023-05-01T12:04:29;35.90;;;21.33;;
68821;SDS011;55834;50.870;4.606;2023-05-01T12:06:54;37.80;;;22.47;;
68821;SDS011;55834;50.870;4.606;2023-05-01T12:09:20;36.30;;;22.30;;
68821;SDS011;55834;50.870;4.606;2023-05-01T12:11:47;25.92;;;17.05;;
68821;SDS011;55834;50.870;4.606;2023-05-01T12:14:15;32.50;;;20.13;;
68821;SDS011;55834;50.870;4.606;2023-05-01T12:16:41;29.30;;;18.33;;
68821;SDS011;55834;50.870;4.606;2023-05-01T12:19:07;31.88;;;18.42;;
68821;SDS011;55834;50.870;4.606;2023-05-01T12:21:33;35.38;;;20.33;;
68821;SDS011;55834;50.870;4.606;2023-05-01T12:24:13;28.15;;;16.85;;
68821;SDS011;55834;50.870;4.606;2023-05-01T12:26:41;29.38;;;19.05;;
68821;SDS011;55834;50.870;4.606;2023-05-01T12:29:07;35.75;;;21.60;;
68821;SDS011;55834;50.870;4.606;2023-05-01T12:31:34;32.40;;;20.45;;
68821;SDS011;55834;50.870;4.606;2023-05-01T12:34:01;31.08;;;20.65;;
68821;SDS011;55834;50.870;4.606;2023-05-01T12:36:29;27.90;;;17.92;;
68821;SDS011;55834;50.870;4.606;2023-05-01T12:41:32;16.63;;;11.27;;
68821;SDS011;55834;50.870;4.606;2023-05-01T12:46:54;17.80;;;11.68;;
68821;SDS011;55834;50.870;4.606;2023-05-01T12:49:21;15.48;;;11.95;;
68821;SDS011;55834;50.870;4.606;2023-05-01T12:54:27;12.98;;;10.02;;
68821;SDS011;55834;50.870;4.606;2023-05-01T12:57:15;15.65;;;11.05;;
68821;SDS011;55834;50.870;4.606;2023-05-01T12:59:41;14.55;;;10.95;;
68821;SDS011;55834;50.870;4.606;2023-05-01T13:02:11;15.02;;;12.30;;
68821;SDS011;55834;50.870;4.606;2023-05-01T13:04:45;15.57;;;10.75;;
68821;SDS011;55834;50.870;4.606;2023-05-01T13:07:22;16.48;;;10.70;;
68821;SDS011;55834;50.870;4.606;2023-05-01T13:09:51;14.70;;;13.20;;
68821;SDS011;55834;50.870;4.606;2023-05-01T13:12:18;14.45;;;11.40;;
68821;SDS011;55834;50.870;4.606;2023-05-01T13:14:43;14.95;;;10.75;;
68821;SDS011;55834;50.870;4.606;2023-05-01T13:17:09;13.15;;;9.27;;
68821;SDS011;55834;50.870;4.606;2023-05-01T13:19:35;15.93;;;9.63;;
68821;SDS011;55834;50.870;4.606;2023-05-01T13:22:02;13.00;;;9.50;;
68821;SDS011;55834;50.870;4.606;2023-05-01T13:24:34;13.02;;;10.52;;
68821;SDS011;55834;50.870;4.606;2023-05-01T13:29:30;15.65;;;12.18;;
68821;SDS011;55834;50.870;4.606;2023-05-01T13:32:06;12.75;;;9.93;;
68821;SDS011;55834;50.870;4.606;2023-05-01T13:34:51;15.52;;;9.95;;
68821;SDS011;55834;50.870;4.606;2023-05-01T13:37:20;11.90;;;10.05;;
68821;SDS011;55834;50.870;4.606;2023-05-01T13:39:46;12.30;;;10.30;;
68821;SDS011;55834;50.870;4.606;2023-05-01T13:42:14;16.13;;;11.57;;
68821;SDS011;55834;50.870;4.606;2023-05-01T13:44:47;15.25;;;12.23;;
68821;SDS011;55834;50.870;4.606;2023-05-01T13:47:17;12.80;;;10.10;;
68821;SDS011;55834;50.870;4.606;2023-05-01T13:56:39;16.08;;;13.50;;
68821;SDS011;55834;50.870;4.606;2023-05-01T13:59:24;14.95;;;12.27;;
68821;SDS011;55834;50.870;4.606;2023-05-01T14:02:42;13.00;;;11.02;;
68821;SDS011;55834;50.870;4.606;2023-05-01T14:08:54;18.10;;;13.02;;
68821;SDS011;55834;50.870;4.606;2023-05-01T14:11:30;15.02;;;10.88;;
68821;SDS011;55834;50.870;4.606;2023-05-01T14:14:20;13.75;;;10.68;;
68821;SDS011;55834;50.870;4.606;2023-05-01T14:37:42;12.63;;;10.27;;
68821;SDS011;55834;50.870;4.606;2023-05-01T14:54:07;11.50;;;8.77;;
68821;SDS011;55834;50.870;4.606;2023-05-01T15:07:09;13.95;;;10.70;;
68821;SDS011;55834;50.870;4.606;2023-05-01T15:17:01;13.73;;;11.25;;
68821;SDS011;55834;50.870;4.606;2023-05-01T15:59:44;13.20;;;8.52;;
68821;SDS011;55834;50.870;4.606;2023-05-01T16:02:23;14.18;;;9.45;;
68821;SDS011;55834;50.870;4.606;2023-05-01T16:05:09;14.05;;;10.23;;
68821;SDS011;55834;50.870;4.606;2023-05-01T16:10:30;17.15;;;8.95;;
68821;SDS011;55834;50.870;4.606;2023-05-01T16:13:00;16.25;;;11.23;;
68821;SDS011;55834;50.870;4.606;2023-05-01T16:21:27;16.77;;;10.55;;
68821;SDS011;55834;50.870;4.606;2023-05-01T16:24:19;14.90;;;9.55;;
68821;SDS011;55834;50.870;4.606;2023-05-01T16:29:46;17.05;;;11.13;;
68821;SDS011;55834;50.870;4.606;2023-05-01T16:32:15;16.23;;;9.50;;
68821;SDS011;55834;50.870;4.606;2023-05-01T16:34:41;17.15;;;11.75;;
68821;SDS011;55834;50.870;4.606;2023-05-01T16:37:22;13.10;;;8.82;;
68821;SDS011;55834;50.870;4.606;2023-05-01T16:39:52;19.30;;;11.52;;
68821;SDS011;55834;50.870;4.606;2023-05-01T16:42:20;19.77;;;10.85;;
68821;SDS011;55834;50.870;4.606;2023-05-01T16:44:51;19.60;;;13.27;;
68821;SDS011;55834;50.870;4.606;2023-05-01T16:47:19;15.23;;;10.80;;
68821;SDS011;55834;50.870;4.606;2023-05-01T16:49:55;16.70;;;9.75;;
68821;SDS011;55834;50.870;4.606;2023-05-01T16:52:45;15.27;;;9.90;;
68821;SDS011;55834;50.870;4.606;2023-05-01T16:55:11;13.13;;;8.80;;
68821;SDS011;55834;50.870;4.606;2023-05-01T16:57:37;12.57;;;8.48;;
68821;SDS011;55834;50.870;4.606;2023-05-01T17:00:06;14.02;;;9.20;;
68821;SDS011;55834;50.870;4.606;2023-05-01T17:05:33;13.88;;;7.72;;
68821;SDS011;55834;50.870;4.606;2023-05-01T17:07:59;12.60;;;7.88;;
68821;SDS011;55834;50.870;4.606;2023-05-01T17:10:25;12.75;;;7.78;;
68821;SDS011;55834;50.870;4.606;2023-05-01T17:12:50;9.70;;;7.32;;
68821;SDS011;55834;50.870;4.606;2023-05-01T17:15:16;9.55;;;6.30;;
68821;SDS011;55834;50.870;4.606;2023-05-01T17:17:42;9.75;;;4.93;;
68821;SDS011;55834;50.870;4.606;2023-05-01T17:20:08;6.30;;;5.32;;
68821;SDS011;55834;50.870;4.606;2023-05-01T17:22:40;6.63;;;5.30;;
68821;SDS011;55834;50.870;4.606;2023-05-01T17:25:14;6.05;;;4.82;;
68821;SDS011;55834;50.870;4.606;2023-05-01T17:27:40;7.70;;;4.88;;
68821;SDS011;55834;50.870;4.606;2023-05-01T17:37:14;5.53;;;3.85;;
68821;SDS011;55834;50.870;4.606;2023-05-01T17:39:39;6.78;;;4.22;;
68821;SDS011;55834;50.870;4.606;2023-05-01T17:42:05;6.38;;;4.60;;
68821;SDS011;55834;50.870;4.606;2023-05-01T17:44:30;8.05;;;4.88;;
68821;SDS011;55834;50.870;4.606;2023-05-01T17:46:57;5.63;;;4.07;;
68821;SDS011;55834;50.870;4.606;2023-05-01T17:49:23;5.50;;;4.88;;
68821;SDS011;55834;50.870;4.606;2023-05-01T17:51:48;8.30;;;4.27;;
68821;SDS011;55834;50.870;4.606;2023-05-01T17:54:13;9.77;;;5.20;;
68821;SDS011;55834;50.870;4.606;2023-05-01T17:56:41;6.20;;;3.97;;
68821;SDS011;55834;50.870;4.606;2023-05-01T17:59:06;9.65;;;5.63;;
68821;SDS011;55834;50.870;4.606;2023-05-01T18:01:32;8.50;;;4.72;;
68821;SDS011;55834;50.870;4.606;2023-05-01T18:03:58;10.05;;;6.22;;
68821;SDS011;55834;50.870;4.606;2023-05-01T18:06:23;8.20;;;5.35;;
68821;SDS011;55834;50.870;4.606;2023-05-01T18:08:49;10.57;;;5.53;;
68821;SDS011;55834;50.870;4.606;2023-05-01T18:11:14;9.35;;;5.47;;
68821;SDS011;55834;50.870;4.606;2023-05-01T18:13:40;6.72;;;3.95;;
68821;SDS011;55834;50.870;4.606;2023-05-01T18:16:07;8.85;;;4.65;;
68821;SDS011;55834;50.870;4.606;2023-05-01T18:18:35;5.40;;;3.53;;
68821;SDS011;55834;50.870;4.606;2023-05-01T18:21:01;7.28;;;4.55;;
68821;SDS011;55834;50.870;4.606;2023-05-01T18:23:27;8.43;;;5.10;;
68821;SDS011;55834;50.870;4.606;2023-05-01T18:25:53;6.97;;;4.68;;
68821;SDS011;55834;50.870;4.606;2023-05-01T18:28:19;5.28;;;3.35;;
68821;SDS011;55834;50.870;4.606;2023-05-01T18:30:45;8.95;;;4.13;;
68821;SDS011;55834;50.870;4.606;2023-05-01T18:33:10;7.13;;;3.28;;
68821;SDS011;55834;50.870;4.606;2023-05-01T18:35:37;9.10;;;3.45;;
68821;SDS011;55834;50.870;4.606;2023-05-01T18:38:04;6.45;;;3.92;;
68821;SDS011;55834;50.870;4.606;2023-05-01T18:40:30;9.23;;;3.58;;
68821;SDS011;55834;50.870;4.606;2023-05-01T18:42:57;9.00;;;3.60;;
68821;SDS011;55834;50.870;4.606;2023-05-01T18:45:23;7.78;;;4.05;;
68821;SDS011;55834;50.870;4.606;2023-05-01T18:47:48;6.25;;;4.15;;
68821;SDS011;55834;50.870;4.606;2023-05-01T18:50:13;6.30;;;3.90;;
68821;SDS011;55834;50.870;4.606;2023-05-01T18:52:41;5.55;;;3.33;;
68821;SDS011;55834;50.870;4.606;2023-05-01T18:55:07;8.43;;;3.83;;
68821;SDS011;55834;50.870;4.606;2023-05-01T18:57:34;5.07;;;3.30;;
68821;SDS011;55834;50.870;4.606;2023-05-01T19:00:00;7.20;;;3.55;;
68821;SDS011;55834;50.870;4.606;2023-05-01T19:02:25;8.27;;;4.75;;
68821;SDS011;55834;50.870;4.606;2023-05-01T19:07:17;5.90;;;3.47;;
68821;SDS011;55834;50.870;4.606;2023-05-01T19:09:43;7.20;;;3.83;;
68821;SDS011;55834;50.870;4.606;2023-05-01T19:12:08;6.33;;;3.43;;
68821;SDS011;55834;50.870;4.606;2023-05-01T19:14:34;7.07;;;4.68;;
68821;SDS011;55834;50.870;4.606;2023-05-01T19:16:59;7.15;;;3.15;;
68821;SDS011;55834;50.870;4.606;2023-05-01T19:19:25;5.68;;;3.20;;
68821;SDS011;55834;50.870;4.606;2023-05-01T19:21:50;6.85;;;3.45;;
68821;SDS011;55834;50.870;4.606;2023-05-01T19:24:16;7.97;;;3.53;;
68821;SDS011;55834;50.870;4.606;2023-05-01T19:26:41;7.17;;;3.43;;
68821;SDS011;55834;50.870;4.606;2023-05-01T19:29:06;6.18;;;3.92;;
68821;SDS011;55834;50.870;4.606;2023-05-01T19:31:32;6.78;;;3.55;;
68821;SDS011;55834;50.870;4.606;2023-05-01T19:33:57;5.90;;;3.83;;
68821;SDS011;55834;50.870;4.606;2023-05-01T19:36:23;5.20;;;3.53;;
68821;SDS011;55834;50.870;4.606;2023-05-01T19:38:50;5.47;;;3.22;;
68821;SDS011;55834;50.870;4.606;2023-05-01T19:41:15;6.00;;;3.60;;
68821;SDS011;55834;50.870;4.606;2023-05-01T19:43:41;7.18;;;3.80;;
68821;SDS011;55834;50.870;4.606;2023-05-01T19:46:06;5.13;;;2.95;;
68821;SDS011;55834;50.870;4.606;2023-05-01T19:48:31;7.00;;;4.97;;
68821;SDS011;55834;50.870;4.606;2023-05-01T19:50:57;8.32;;;3.88;;
68821;SDS011;55834;50.870;4.606;2023-05-01T19:53:22;7.55;;;3.58;;
68821;SDS011;55834;50.870;4.606;2023-05-01T19:55:49;8.35;;;4.35;;
68821;SDS011;55834;50.870;4.606;2023-05-01T19:58:15;3.90;;;2.88;;
68821;SDS011;55834;50.870;4.606;2023-05-01T20:00:40;6.47;;;4.00;;
68821;SDS011;55834;50.870;4.606;2023-05-01T20:03:06;6.53;;;3.80;;
68821;SDS011;55834;50.870;4.606;2023-05-01T20:05:31;6.47;;;3.90;;
68821;SDS011;55834;50.870;4.606;2023-05-01T20:07:57;11.60;;;5.18;;
68821;SDS011;55834;50.870;4.606;2023-05-01T20:10:25;8.73;;;4.43;;
68821;SDS011;55834;50.870;4.606;2023-05-01T20:12:51;8.52;;;5.05;;
68821;SDS011;55834;50.870;4.606;2023-05-01T20:15:16;12.93;;;6.60;;
68821;SDS011;55834;50.870;4.606;2023-05-01T20:17:45;12.32;;;7.22;;
68821;SDS011;55834;50.870;4.606;2023-05-01T20:20:15;9.27;;;5.93;;
68821;SDS011;55834;50.870;4.606;2023-05-01T20:22:42;11.18;;;6.53;;
68821;SDS011;55834;50.870;4.606;2023-05-01T20:25:08;11.73;;;7.03;;
68821;SDS011;55834;50.870;4.606;2023-05-01T20:27:34;10.50;;;6.60;;
68821;SDS011;55834;50.870;4.606;2023-05-01T20:30:06;13.95;;;7.47;;
68821;SDS011;55834;50.870;4.606;2023-05-01T20:32:35;11.57;;;6.95;;
68821;SDS011;55834;50.870;4.606;2023-05-01T20:35:06;14.30;;;7.20;;
68821;SDS011;55834;50.870;4.606;2023-05-01T20:37:32;12.32;;;8.05;;
68821;SDS011;55834;50.870;4.606;2023-05-01T20:39:57;15.47;;;8.00;;
68821;SDS011;55834;50.870;4.606;2023-05-01T20:42:23;14.03;;;6.80;;
68821;SDS011;55834;50.870;4.606;2023-05-01T20:44:48;12.65;;;7.38;;
68821;SDS011;55834;50.870;4.606;2023-05-01T20:47:13;14.13;;;7.40;;
68821;SDS011;55834;50.870;4.606;2023-05-01T20:49:39;16.27;;;8.03;;
68821;SDS011;55834;50.870;4.606;2023-05-01T20:52:04;14.17;;;6.93;;
68821;SDS011;55834;50.870;4.606;2023-05-01T20:54:30;17.48;;;7.50;;
68821;SDS011;55834;50.870;4.606;2023-05-01T20:56:56;14.20;;;8.02;;
68821;SDS011;55834;50.870;4.606;2023-05-01T20:59:23;12.27;;;7.20;;
68821;SDS011;55834;50.870;4.606;2023-05-01T21:01:48;13.18;;;7.65;;
68821;SDS011;55834;50.870;4.606;2023-05-01T21:04:14;10.55;;;6.72;;
68821;SDS011;55834;50.870;4.606;2023-05-01T21:06:40;17.83;;;8.85;;
68821;SDS011;55834;50.870;4.606;2023-05-01T21:09:05;15.67;;;8.67;;
68821;SDS011;55834;50.870;4.606;2023-05-01T21:11:37;13.10;;;8.45;;
68821;SDS011;55834;50.870;4.606;2023-05-01T21:14:03;16.92;;;9.05;;
68821;SDS011;55834;50.870;4.606;2023-05-01T21:16:29;12.82;;;7.50;;